Main page
METAR-TAF:

METAR-TAF

Airports :

Genoa Cristoforo Colombo Airport

Genoa, Italy

latitude: 44-25N, longitude: 008-51E, elevation: 2 m

Current weather observation

The report was made 37 minutes ago, at 16:50 UTC
Wind 2 kt from variable directions
Temperature 26°C
Humidity 79%
Pressure 1013 hPa
Visibility 10 km or more
Few clouds at a height of 2400 ft
Scattered clouds at a height of 7500 ft

METAR: LIMJ 191650Z VRB02KT 9999 FEW024 SCT075 26/22 Q1013

Time: 19:27 (17:27 UTC)

Forecast

The report was made 6 hours and 27 minutes ago, at 11:00 UTC
Forecast valid from 19 at 12 UTC to 20 at 12 UTC
Wind 7 kt from the South/Southeast
Visibility 10 km or more
Scattered clouds at a height of 3000 ft

TAF: LIMJ 191100Z 1912/2012 15007KT 9999 SCT030

Weather observations and forecasts of more than 4000 airports (METAR and TAF reports).

The available stations are represented by yellow and red dots on the map.

Hover mouse over dot to see the name of the station.

Then click to see weather observations and forecasts.

To change the map : click on the green buttons with a black cross to zoom in, on the green button with a dash to zoom out, or on the green arrows for adjacent maps.


METAR-TAF: